Terminal Aerodrome Forecast
Issued by NWS Detroit/Pontiac, MI

Home | Current Version | Previous Version | Text Only | Print | Product List | Glossary On
Versions: 1 2 3 4 5 6 7 8 9 10 11 12 13 14 15 16 17 18 19 20
000
FTUS43 KDTX 011936 AAA
TAFFNT
TAF AMD
KFNT 011936Z 0120/0218 24007KT P6SM SCT040
     FM020000 22004KT P6SM SCT045
     FM020500 22003KT 4SM BR SCT045
     FM020800 22003KT 2SM BR SCT003
     FM021400 25006KT P6SM SCT035
     FM021700 26008KT P6SM BKN040=

USA.gov is the U.S. government's official web portal to all federal, state and local government web resources and services.